sensor_id;sensor_type;location;lat;lon;timestamp;P1;durP1;ratioP1;P2;durP2;ratioP2
15240;SDS011;7723;52.170;9.978;2023-10-09T00:01:04;1.48;;;0.95;;
15240;SDS011;7723;52.170;9.978;2023-10-09T00:03:38;2.75;;;0.77;;
15240;SDS011;7723;52.170;9.978;2023-10-09T00:06:07;1.70;;;0.90;;
15240;SDS011;7723;52.170;9.978;2023-10-09T00:08:35;1.70;;;0.73;;
15240;SDS011;7723;52.170;9.978;2023-10-09T00:11:04;1.10;;;0.70;;
15240;SDS011;7723;52.170;9.978;2023-10-09T00:13:42;3.30;;;0.90;;
15240;SDS011;7723;52.170;9.978;2023-10-09T00:16:16;1.35;;;0.82;;
15240;SDS011;7723;52.170;9.978;2023-10-09T00:18:48;1.63;;;1.20;;
15240;SDS011;7723;52.170;9.978;2023-10-09T00:21:16;1.83;;;1.00;;
15240;SDS011;7723;52.170;9.978;2023-10-09T00:23:45;2.63;;;1.42;;
15240;SDS011;7723;52.170;9.978;2023-10-09T00:26:20;2.40;;;1.05;;
15240;SDS011;7723;52.170;9.978;2023-10-09T00:28:48;2.55;;;1.08;;
15240;SDS011;7723;52.170;9.978;2023-10-09T00:31:17;2.25;;;1.35;;
15240;SDS011;7723;52.170;9.978;2023-10-09T00:33:55;5.20;;;1.20;;
15240;SDS011;7723;52.170;9.978;2023-10-09T00:36:26;4.03;;;1.27;;
15240;SDS011;7723;52.170;9.978;2023-10-09T00:38:54;2.35;;;1.42;;
15240;SDS011;7723;52.170;9.978;2023-10-09T00:41:25;2.95;;;1.23;;
15240;SDS011;7723;52.170;9.978;2023-10-09T00:43:54;2.85;;;1.10;;
15240;SDS011;7723;52.170;9.978;2023-10-09T00:46:25;2.17;;;1.20;;
15240;SDS011;7723;52.170;9.978;2023-10-09T00:48:54;2.25;;;1.30;;
15240;SDS011;7723;52.170;9.978;2023-10-09T00:51:23;2.00;;;1.25;;
15240;SDS011;7723;52.170;9.978;2023-10-09T00:53:52;3.53;;;1.48;;
15240;SDS011;7723;52.170;9.978;2023-10-09T00:56:21;2.03;;;1.25;;
15240;SDS011;7723;52.170;9.978;2023-10-09T00:59:03;5.45;;;1.55;;
15240;SDS011;7723;52.170;9.978;2023-10-09T01:01:35;3.47;;;1.95;;
15240;SDS011;7723;52.170;9.978;2023-10-09T01:04:05;2.55;;;1.60;;
15240;SDS011;7723;52.170;9.978;2023-10-09T01:06:35;3.42;;;1.65;;
15240;SDS011;7723;52.170;9.978;2023-10-09T01:09:08;2.13;;;1.58;;
15240;SDS011;7723;52.170;9.978;2023-10-09T01:11:37;2.53;;;1.52;;
15240;SDS011;7723;52.170;9.978;2023-10-09T01:14:13;2.65;;;1.20;;
15240;SDS011;7723;52.170;9.978;2023-10-09T01:16:42;4.80;;;1.67;;
15240;SDS011;7723;52.170;9.978;2023-10-09T01:19:12;4.00;;;1.40;;
15240;SDS011;7723;52.170;9.978;2023-10-09T01:21:45;5.03;;;1.70;;
15240;SDS011;7723;52.170;9.978;2023-10-09T01:24:15;2.35;;;1.60;;
15240;SDS011;7723;52.170;9.978;2023-10-09T01:26:44;3.85;;;1.98;;
15240;SDS011;7723;52.170;9.978;2023-10-09T01:29:13;3.15;;;1.65;;
15240;SDS011;7723;52.170;9.978;2023-10-09T01:31:42;3.92;;;2.35;;
15240;SDS011;7723;52.170;9.978;2023-10-09T01:34:20;7.65;;;2.25;;
15240;SDS011;7723;52.170;9.978;2023-10-09T01:36:50;4.15;;;1.88;;
15240;SDS011;7723;52.170;9.978;2023-10-09T01:39:21;3.25;;;1.42;;
15240;SDS011;7723;52.170;9.978;2023-10-09T01:41:51;2.58;;;1.60;;
15240;SDS011;7723;52.170;9.978;2023-10-09T01:44:24;2.97;;;1.45;;
15240;SDS011;7723;52.170;9.978;2023-10-09T01:46:53;4.47;;;1.80;;
15240;SDS011;7723;52.170;9.978;2023-10-09T01:49:23;3.05;;;1.50;;
15240;SDS011;7723;52.170;9.978;2023-10-09T01:51:56;1.90;;;1.40;;
15240;SDS011;7723;52.170;9.978;2023-10-09T01:54:36;3.70;;;1.75;;
15240;SDS011;7723;52.170;9.978;2023-10-09T01:57:04;5.43;;;1.70;;
15240;SDS011;7723;52.170;9.978;2023-10-09T01:59:37;4.32;;;1.75;;
15240;SDS011;7723;52.170;9.978;2023-10-09T02:02:09;4.32;;;1.90;;
15240;SDS011;7723;52.170;9.978;2023-10-09T02:04:51;5.55;;;2.00;;
15240;SDS011;7723;52.170;9.978;2023-10-09T02:07:20;2.67;;;1.95;;
15240;SDS011;7723;52.170;9.978;2023-10-09T02:09:55;4.43;;;1.90;;
15240;SDS011;7723;52.170;9.978;2023-10-09T02:12:23;3.60;;;1.80;;
15240;SDS011;7723;52.170;9.978;2023-10-09T02:14:51;4.93;;;1.83;;
15240;SDS011;7723;52.170;9.978;2023-10-09T02:17:21;3.38;;;1.80;;
15240;SDS011;7723;52.170;9.978;2023-10-09T02:19:54;4.53;;;1.75;;
15240;SDS011;7723;52.170;9.978;2023-10-09T02:22:22;4.32;;;2.33;;
15240;SDS011;7723;52.170;9.978;2023-10-09T02:24:51;3.90;;;1.98;;
15240;SDS011;7723;52.170;9.978;2023-10-09T02:27:25;6.13;;;2.28;;
15240;SDS011;7723;52.170;9.978;2023-10-09T02:30:19;4.50;;;2.00;;
15240;SDS011;7723;52.170;9.978;2023-10-09T02:32:54;3.67;;;2.00;;
15240;SDS011;7723;52.170;9.978;2023-10-09T02:35:24;4.35;;;2.30;;
15240;SDS011;7723;52.170;9.978;2023-10-09T02:37:56;3.25;;;2.10;;
15240;SDS011;7723;52.170;9.978;2023-10-09T02:40:26;4.30;;;2.10;;
15240;SDS011;7723;52.170;9.978;2023-10-09T02:42:58;4.40;;;2.33;;
15240;SDS011;7723;52.170;9.978;2023-10-09T02:45:26;2.60;;;1.77;;
15240;SDS011;7723;52.170;9.978;2023-10-09T02:48:00;3.47;;;1.90;;
15240;SDS011;7723;52.170;9.978;2023-10-09T02:50:35;4.82;;;2.28;;
15240;SDS011;7723;52.170;9.978;2023-10-09T02:53:03;3.78;;;2.20;;
15240;SDS011;7723;52.170;9.978;2023-10-09T02:55:34;7.22;;;2.38;;
15240;SDS011;7723;52.170;9.978;2023-10-09T02:58:05;9.13;;;3.00;;
15240;SDS011;7723;52.170;9.978;2023-10-09T03:00:33;4.47;;;2.42;;
15240;SDS011;7723;52.170;9.978;2023-10-09T03:03:02;4.00;;;2.40;;
15240;SDS011;7723;52.170;9.978;2023-10-09T03:05:32;6.22;;;2.05;;
15240;SDS011;7723;52.170;9.978;2023-10-09T03:07:59;6.78;;;3.15;;
15240;SDS011;7723;52.170;9.978;2023-10-09T03:10:27;7.85;;;3.00;;
15240;SDS011;7723;52.170;9.978;2023-10-09T03:12:54;5.57;;;2.95;;
15240;SDS011;7723;52.170;9.978;2023-10-09T03:15:23;4.53;;;3.03;;
15240;SDS011;7723;52.170;9.978;2023-10-09T03:17:50;7.97;;;3.08;;
15240;SDS011;7723;52.170;9.978;2023-10-09T03:20:17;5.55;;;3.15;;
15240;SDS011;7723;52.170;9.978;2023-10-09T03:22:44;7.10;;;3.53;;
15240;SDS011;7723;52.170;9.978;2023-10-09T03:25:13;7.68;;;3.40;;
15240;SDS011;7723;52.170;9.978;2023-10-09T03:27:42;7.57;;;3.15;;
15240;SDS011;7723;52.170;9.978;2023-10-09T03:30:12;6.28;;;2.95;;
15240;SDS011;7723;52.170;9.978;2023-10-09T03:32:49;7.72;;;3.55;;
15240;SDS011;7723;52.170;9.978;2023-10-09T03:35:17;9.55;;;3.88;;
15240;SDS011;7723;52.170;9.978;2023-10-09T03:37:51;10.80;;;3.95;;
15240;SDS011;7723;52.170;9.978;2023-10-09T03:40:22;11.70;;;4.30;;
15240;SDS011;7723;52.170;9.978;2023-10-09T03:42:50;7.75;;;3.90;;
15240;SDS011;7723;52.170;9.978;2023-10-09T03:45:18;7.03;;;4.35;;
15240;SDS011;7723;52.170;9.978;2023-10-09T03:47:53;10.93;;;4.55;;
15240;SDS011;7723;52.170;9.978;2023-10-09T03:50:27;7.70;;;4.60;;
15240;SDS011;7723;52.170;9.978;2023-10-09T03:53:01;9.38;;;4.95;;
15240;SDS011;7723;52.170;9.978;2023-10-09T03:55:32;8.55;;;5.28;;
15240;SDS011;7723;52.170;9.978;2023-10-09T03:58:03;10.30;;;5.25;;
15240;SDS011;7723;52.170;9.978;2023-10-09T04:00:32;13.23;;;6.38;;
15240;SDS011;7723;52.170;9.978;2023-10-09T04:03:11;12.60;;;5.70;;
15240;SDS011;7723;52.170;9.978;2023-10-09T04:05:39;13.90;;;6.65;;
15240;SDS011;7723;52.170;9.978;2023-10-09T04:08:08;14.90;;;6.43;;
15240;SDS011;7723;52.170;9.978;2023-10-09T04:10:38;12.90;;;6.28;;
15240;SDS011;7723;52.170;9.978;2023-10-09T04:13:17;15.45;;;7.68;;
15240;SDS011;7723;52.170;9.978;2023-10-09T04:15:49;15.25;;;9.13;;
15240;SDS011;7723;52.170;9.978;2023-10-09T04:18:20;17.58;;;9.48;;
15240;SDS011;7723;52.170;9.978;2023-10-09T04:20:54;21.48;;;9.95;;
15240;SDS011;7723;52.170;9.978;2023-10-09T04:23:39;20.42;;;11.48;;
15240;SDS011;7723;52.170;9.978;2023-10-09T04:26:20;23.48;;;12.13;;
15240;SDS011;7723;52.170;9.978;2023-10-09T04:28:50;23.85;;;13.30;;
15240;SDS011;7723;52.170;9.978;2023-10-09T04:31:18;28.55;;;15.63;;
15240;SDS011;7723;52.170;9.978;2023-10-09T04:33:49;24.35;;;14.90;;
15240;SDS011;7723;52.170;9.978;2023-10-09T04:36:44;22.63;;;13.35;;
15240;SDS011;7723;52.170;9.978;2023-10-09T04:39:14;28.00;;;15.23;;
15240;SDS011;7723;52.170;9.978;2023-10-09T04:42:00;25.48;;;13.40;;
15240;SDS011;7723;52.170;9.978;2023-10-09T04:44:51;24.30;;;14.15;;
15240;SDS011;7723;52.170;9.978;2023-10-09T04:47:43;30.60;;;16.23;;
15240;SDS011;7723;52.170;9.978;2023-10-09T04:50:24;28.95;;;15.77;;
15240;SDS011;7723;52.170;9.978;2023-10-09T04:53:32;36.83;;;15.93;;
15240;SDS011;7723;52.170;9.978;2023-10-09T04:56:04;29.92;;;16.00;;
15240;SDS011;7723;52.170;9.978;2023-10-09T04:58:40;32.05;;;17.40;;
15240;SDS011;7723;52.170;9.978;2023-10-09T05:01:09;33.42;;;16.63;;
15240;SDS011;7723;52.170;9.978;2023-10-09T05:03:40;31.45;;;17.48;;
15240;SDS011;7723;52.170;9.978;2023-10-09T05:06:12;33.75;;;18.38;;
15240;SDS011;7723;52.170;9.978;2023-10-09T05:08:58;31.50;;;17.42;;
15240;SDS011;7723;52.170;9.978;2023-10-09T05:11:34;30.00;;;17.38;;
15240;SDS011;7723;52.170;9.978;2023-10-09T05:14:15;31.85;;;18.88;;
15240;SDS011;7723;52.170;9.978;2023-10-09T05:16:44;37.63;;;19.15;;
15240;SDS011;7723;52.170;9.978;2023-10-09T05:19:19;31.63;;;17.17;;
15240;SDS011;7723;52.170;9.978;2023-10-09T05:22:08;33.80;;;18.08;;
15240;SDS011;7723;52.170;9.978;2023-10-09T05:24:54;32.97;;;18.48;;
15240;SDS011;7723;52.170;9.978;2023-10-09T05:27:22;28.75;;;18.35;;
15240;SDS011;7723;52.170;9.978;2023-10-09T05:30:10;31.70;;;17.42;;
15240;SDS011;7723;52.170;9.978;2023-10-09T05:32:51;33.55;;;16.98;;
15240;SDS011;7723;52.170;9.978;2023-10-09T05:35:23;28.60;;;16.77;;
15240;SDS011;7723;52.170;9.978;2023-10-09T05:38:07;35.70;;;18.15;;
15240;SDS011;7723;52.170;9.978;2023-10-09T05:40:49;29.38;;;17.05;;
15240;SDS011;7723;52.170;9.978;2023-10-09T05:43:19;35.53;;;18.17;;
15240;SDS011;7723;52.170;9.978;2023-10-09T05:46:01;34.75;;;17.80;;
15240;SDS011;7723;52.170;9.978;2023-10-09T05:48:33;31.70;;;17.25;;
15240;SDS011;7723;52.170;9.978;2023-10-09T05:51:14;28.65;;;16.50;;
15240;SDS011;7723;52.170;9.978;2023-10-09T05:54:07;30.42;;;17.52;;
15240;SDS011;7723;52.170;9.978;2023-10-09T05:56:48;29.58;;;15.98;;
15240;SDS011;7723;52.170;9.978;2023-10-09T05:59:33;27.00;;;15.43;;
15240;SDS011;7723;52.170;9.978;2023-10-09T06:02:18;28.33;;;15.98;;
15240;SDS011;7723;52.170;9.978;2023-10-09T06:05:07;26.52;;;15.27;;
15240;SDS011;7723;52.170;9.978;2023-10-09T06:08:05;23.52;;;13.75;;
15240;SDS011;7723;52.170;9.978;2023-10-09T06:10:34;29.85;;;15.55;;
15240;SDS011;7723;52.170;9.978;2023-10-09T06:13:06;31.45;;;15.50;;
15240;SDS011;7723;52.170;9.978;2023-10-09T06:15:54;38.55;;;15.82;;
15240;SDS011;7723;52.170;9.978;2023-10-09T06:18:34;28.17;;;15.23;;
15240;SDS011;7723;52.170;9.978;2023-10-09T06:21:06;31.88;;;16.48;;
15240;SDS011;7723;52.170;9.978;2023-10-09T06:23:55;26.40;;;15.18;;
15240;SDS011;7723;52.170;9.978;2023-10-09T06:26:41;30.17;;;15.65;;
15240;SDS011;7723;52.170;9.978;2023-10-09T06:29:17;28.42;;;14.80;;
15240;SDS011;7723;52.170;9.978;2023-10-09T06:32:00;26.85;;;15.60;;
15240;SDS011;7723;52.170;9.978;2023-10-09T06:34:49;24.55;;;14.63;;
15240;SDS011;7723;52.170;9.978;2023-10-09T06:37:22;28.08;;;15.80;;
15240;SDS011;7723;52.170;9.978;2023-10-09T06:40:00;28.80;;;15.80;;
15240;SDS011;7723;52.170;9.978;2023-10-09T06:43:01;31.67;;;18.05;;
15240;SDS011;7723;52.170;9.978;2023-10-09T06:45:34;32.17;;;17.45;;
15240;SDS011;7723;52.170;9.978;2023-10-09T06:48:10;29.63;;;15.30;;
15240;SDS011;7723;52.170;9.978;2023-10-09T06:50:51;29.30;;;16.00;;
15240;SDS011;7723;52.170;9.978;2023-10-09T06:53:29;33.83;;;16.55;;
15240;SDS011;7723;52.170;9.978;2023-10-09T06:56:10;30.10;;;15.82;;
15240;SDS011;7723;52.170;9.978;2023-10-09T06:58:50;26.80;;;14.27;;
15240;SDS011;7723;52.170;9.978;2023-10-09T07:01:20;29.17;;;15.20;;
15240;SDS011;7723;52.170;9.978;2023-10-09T07:03:54;27.98;;;15.27;;
15240;SDS011;7723;52.170;9.978;2023-10-09T07:06:25;30.73;;;16.67;;
15240;SDS011;7723;52.170;9.978;2023-10-09T07:09:06;36.60;;;16.35;;
15240;SDS011;7723;52.170;9.978;2023-10-09T07:11:45;29.15;;;15.57;;
15240;SDS011;7723;52.170;9.978;2023-10-09T07:14:30;32.22;;;15.82;;
15240;SDS011;7723;52.170;9.978;2023-10-09T07:17:30;28.02;;;14.80;;
15240;SDS011;7723;52.170;9.978;2023-10-09T07:20:12;27.48;;;15.05;;
15240;SDS011;7723;52.170;9.978;2023-10-09T07:22:40;27.42;;;16.25;;
15240;SDS011;7723;52.170;9.978;2023-10-09T07:25:21;29.15;;;15.38;;
15240;SDS011;7723;52.170;9.978;2023-10-09T07:28:08;29.10;;;14.70;;
15240;SDS011;7723;52.170;9.978;2023-10-09T07:30:55;24.08;;;14.60;;
15240;SDS011;7723;52.170;9.978;2023-10-09T07:33:24;31.23;;;15.85;;
15240;SDS011;7723;52.170;9.978;2023-10-09T07:36:16;25.55;;;14.55;;
15240;SDS011;7723;52.170;9.978;2023-10-09T07:38:54;26.38;;;14.35;;
15240;SDS011;7723;52.170;9.978;2023-10-09T07:41:29;30.35;;;16.00;;
15240;SDS011;7723;52.170;9.978;2023-10-09T07:44:00;28.13;;;15.38;;
15240;SDS011;7723;52.170;9.978;2023-10-09T07:46:45;28.48;;;16.77;;
15240;SDS011;7723;52.170;9.978;2023-10-09T07:49:38;28.77;;;15.50;;
15240;SDS011;7723;52.170;9.978;2023-10-09T07:52:04;28.75;;;15.98;;
15240;SDS011;7723;52.170;9.978;2023-10-09T07:54:32;26.60;;;14.43;;
15240;SDS011;7723;52.170;9.978;2023-10-09T07:57:00;31.42;;;16.58;;
15240;SDS011;7723;52.170;9.978;2023-10-09T07:59:34;28.67;;;15.20;;
15240;SDS011;7723;52.170;9.978;2023-10-09T08:02:08;31.73;;;16.92;;
15240;SDS011;7723;52.170;9.978;2023-10-09T08:04:39;22.27;;;13.45;;
15240;SDS011;7723;52.170;9.978;2023-10-09T08:07:15;27.10;;;15.43;;
15240;SDS011;7723;52.170;9.978;2023-10-09T08:09:50;28.80;;;16.30;;
15240;SDS011;7723;52.170;9.978;2023-10-09T08:12:32;33.35;;;16.92;;
15240;SDS011;7723;52.170;9.978;2023-10-09T08:15:21;27.58;;;15.88;;
15240;SDS011;7723;52.170;9.978;2023-10-09T08:17:53;28.88;;;15.70;;
15240;SDS011;7723;52.170;9.978;2023-10-09T08:20:24;25.80;;;15.45;;
15240;SDS011;7723;52.170;9.978;2023-10-09T08:22:51;31.50;;;15.82;;
15240;SDS011;7723;52.170;9.978;2023-10-09T08:25:21;26.45;;;15.80;;
15240;SDS011;7723;52.170;9.978;2023-10-09T08:27:54;24.63;;;15.50;;
15240;SDS011;7723;52.170;9.978;2023-10-09T08:30:22;28.27;;;15.95;;
15240;SDS011;7723;52.170;9.978;2023-10-09T08:33:15;25.95;;;15.57;;
15240;SDS011;7723;52.170;9.978;2023-10-09T08:35:59;27.10;;;15.55;;
15240;SDS011;7723;52.170;9.978;2023-10-09T08:38:29;24.90;;;14.77;;
15240;SDS011;7723;52.170;9.978;2023-10-09T08:41:06;26.17;;;16.15;;
15240;SDS011;7723;52.170;9.978;2023-10-09T08:43:42;31.92;;;16.55;;
15240;SDS011;7723;52.170;9.978;2023-10-09T08:46:16;27.23;;;15.52;;
15240;SDS011;7723;52.170;9.978;2023-10-09T08:48:48;25.05;;;13.77;;
15240;SDS011;7723;52.170;9.978;2023-10-09T08:51:17;22.65;;;13.75;;
15240;SDS011;7723;52.170;9.978;2023-10-09T08:53:45;22.58;;;14.23;;
15240;SDS011;7723;52.170;9.978;2023-10-09T08:56:13;25.05;;;14.85;;
15240;SDS011;7723;52.170;9.978;2023-10-09T08:58:44;22.35;;;13.77;;
15240;SDS011;7723;52.170;9.978;2023-10-09T09:01:15;21.70;;;13.63;;
15240;SDS011;7723;52.170;9.978;2023-10-09T09:03:46;21.40;;;12.25;;
15240;SDS011;7723;52.170;9.978;2023-10-09T09:06:15;20.20;;;12.40;;
15240;SDS011;7723;52.170;9.978;2023-10-09T09:08:44;19.77;;;12.25;;
15240;SDS011;7723;52.170;9.978;2023-10-09T09:11:12;18.25;;;12.02;;
15240;SDS011;7723;52.170;9.978;2023-10-09T09:13:43;16.08;;;10.18;;
15240;SDS011;7723;52.170;9.978;2023-10-09T09:16:15;22.95;;;12.00;;
15240;SDS011;7723;52.170;9.978;2023-10-09T09:18:52;19.23;;;11.43;;
15240;SDS011;7723;52.170;9.978;2023-10-09T09:21:26;17.60;;;11.23;;
15240;SDS011;7723;52.170;9.978;2023-10-09T09:23:54;18.52;;;10.32;;
15240;SDS011;7723;52.170;9.978;2023-10-09T09:26:35;22.17;;;11.82;;
15240;SDS011;7723;52.170;9.978;2023-10-09T09:29:10;21.80;;;11.70;;
15240;SDS011;7723;52.170;9.978;2023-10-09T09:31:37;19.48;;;12.27;;
15240;SDS011;7723;52.170;9.978;2023-10-09T09:34:08;19.00;;;12.20;;
15240;SDS011;7723;52.170;9.978;2023-10-09T09:36:51;17.52;;;11.80;;
15240;SDS011;7723;52.170;9.978;2023-10-09T09:39:21;14.60;;;9.98;;
15240;SDS011;7723;52.170;9.978;2023-10-09T09:41:54;18.38;;;11.52;;
15240;SDS011;7723;52.170;9.978;2023-10-09T09:44:30;18.83;;;11.35;;
15240;SDS011;7723;52.170;9.978;2023-10-09T09:46:59;17.40;;;11.00;;
15240;SDS011;7723;52.170;9.978;2023-10-09T09:49:30;19.73;;;12.55;;
15240;SDS011;7723;52.170;9.978;2023-10-09T09:52:00;16.38;;;10.73;;
15240;SDS011;7723;52.170;9.978;2023-10-09T09:54:35;17.90;;;11.68;;
15240;SDS011;7723;52.170;9.978;2023-10-09T09:57:04;18.75;;;11.75;;
15240;SDS011;7723;52.170;9.978;2023-10-09T09:59:37;18.75;;;11.57;;
15240;SDS011;7723;52.170;9.978;2023-10-09T10:02:16;19.75;;;11.93;;
15240;SDS011;7723;52.170;9.978;2023-10-09T10:04:53;17.10;;;12.05;;
15240;SDS011;7723;52.170;9.978;2023-10-09T10:07:23;19.23;;;12.80;;
15240;SDS011;7723;52.170;9.978;2023-10-09T10:09:54;19.95;;;13.02;;
15240;SDS011;7723;52.170;9.978;2023-10-09T10:18:30;29.48;;;14.95;;
15240;SDS011;7723;52.170;9.978;2023-10-09T10:21:26;25.70;;;14.18;;
15240;SDS011;7723;52.170;9.978;2023-10-09T10:24:04;23.55;;;14.30;;
15240;SDS011;7723;52.170;9.978;2023-10-09T10:29:43;23.05;;;15.23;;
15240;SDS011;7723;52.170;9.978;2023-10-09T10:32:11;24.65;;;15.45;;
15240;SDS011;7723;52.170;9.978;2023-10-09T10:34:52;21.77;;;15.45;;
15240;SDS011;7723;52.170;9.978;2023-10-09T10:37:34;27.42;;;16.83;;
15240;SDS011;7723;52.170;9.978;2023-10-09T10:40:09;25.08;;;16.30;;
15240;SDS011;7723;52.170;9.978;2023-10-09T10:43:01;21.63;;;16.15;;
15240;SDS011;7723;52.170;9.978;2023-10-09T10:45:39;26.45;;;18.83;;
15240;SDS011;7723;52.170;9.978;2023-10-09T10:48:10;26.15;;;18.63;;
15240;SDS011;7723;52.170;9.978;2023-10-09T10:50:48;23.25;;;17.77;;
15240;SDS011;7723;52.170;9.978;2023-10-09T10:53:23;25.45;;;18.77;;
15240;SDS011;7723;52.170;9.978;2023-10-09T10:55:54;25.95;;;18.27;;
15240;SDS011;7723;52.170;9.978;2023-10-09T10:58:22;25.88;;;19.35;;
15240;SDS011;7723;52.170;9.978;2023-10-09T11:01:00;26.80;;;18.10;;
15240;SDS011;7723;52.170;9.978;2023-10-09T11:03:39;25.30;;;17.75;;
15240;SDS011;7723;52.170;9.978;2023-10-09T11:06:33;24.55;;;17.27;;
15240;SDS011;7723;52.170;9.978;2023-10-09T11:09:07;24.65;;;17.17;;
15240;SDS011;7723;52.170;9.978;2023-10-09T11:11:46;23.98;;;17.00;;
15240;SDS011;7723;52.170;9.978;2023-10-09T11:14:14;23.10;;;16.30;;
15240;SDS011;7723;52.170;9.978;2023-10-09T11:16:42;22.35;;;16.95;;
15240;SDS011;7723;52.170;9.978;2023-10-09T11:19:13;23.52;;;16.98;;
15240;SDS011;7723;52.170;9.978;2023-10-09T11:21:59;24.20;;;16.77;;
15240;SDS011;7723;52.170;9.978;2023-10-09T11:24:46;20.58;;;15.60;;
15240;SDS011;7723;52.170;9.978;2023-10-09T11:27:26;20.38;;;16.10;;
15240;SDS011;7723;52.170;9.978;2023-10-09T11:29:57;22.35;;;17.20;;
15240;SDS011;7723;52.170;9.978;2023-10-09T11:32:30;22.05;;;16.67;;
15240;SDS011;7723;52.170;9.978;2023-10-09T11:35:10;26.60;;;19.33;;
15240;SDS011;7723;52.170;9.978;2023-10-09T11:37:41;25.92;;;17.88;;
15240;SDS011;7723;52.170;9.978;2023-10-09T11:42:59;24.65;;;18.98;;
15240;SDS011;7723;52.170;9.978;2023-10-09T11:45:28;26.98;;;19.58;;
15240;SDS011;7723;52.170;9.978;2023-10-09T11:47:55;28.10;;;20.63;;
15240;SDS011;7723;52.170;9.978;2023-10-09T11:53:09;27.15;;;19.45;;
15240;SDS011;7723;52.170;9.978;2023-10-09T11:56:01;25.90;;;17.90;;
15240;SDS011;7723;52.170;9.978;2023-10-09T11:58:27;26.27;;;18.33;;
15240;SDS011;7723;52.170;9.978;2023-10-09T12:00:55;25.63;;;17.40;;
15240;SDS011;7723;52.170;9.978;2023-10-09T12:03:24;25.23;;;17.77;;
15240;SDS011;7723;52.170;9.978;2023-10-09T12:05:55;21.90;;;17.17;;
15240;SDS011;7723;52.170;9.978;2023-10-09T12:08:24;21.25;;;16.40;;
15240;SDS011;7723;52.170;9.978;2023-10-09T12:10:53;20.85;;;15.48;;
15240;SDS011;7723;52.170;9.978;2023-10-09T12:13:21;20.60;;;15.27;;
15240;SDS011;7723;52.170;9.978;2023-10-09T12:15:49;16.42;;;12.82;;
15240;SDS011;7723;52.170;9.978;2023-10-09T12:18:19;14.52;;;11.32;;
15240;SDS011;7723;52.170;9.978;2023-10-09T12:20:49;14.30;;;9.68;;
15240;SDS011;7723;52.170;9.978;2023-10-09T12:23:17;10.90;;;8.68;;
15240;SDS011;7723;52.170;9.978;2023-10-09T12:25:47;8.75;;;7.65;;
15240;SDS011;7723;52.170;9.978;2023-10-09T12:28:15;7.70;;;6.53;;
15240;SDS011;7723;52.170;9.978;2023-10-09T12:30:45;7.38;;;6.68;;
15240;SDS011;7723;52.170;9.978;2023-10-09T12:33:16;7.07;;;6.07;;
15240;SDS011;7723;52.170;9.978;2023-10-09T12:35:44;10.10;;;6.45;;
15240;SDS011;7723;52.170;9.978;2023-10-09T12:38:12;7.85;;;6.40;;
15240;SDS011;7723;52.170;9.978;2023-10-09T12:40:44;7.43;;;6.43;;
15240;SDS011;7723;52.170;9.978;2023-10-09T12:43:17;8.02;;;7.00;;
15240;SDS011;7723;52.170;9.978;2023-10-09T12:45:47;9.43;;;7.10;;
15240;SDS011;7723;52.170;9.978;2023-10-09T12:48:14;9.52;;;7.55;;
15240;SDS011;7723;52.170;9.978;2023-10-09T12:50:41;9.90;;;7.95;;
15240;SDS011;7723;52.170;9.978;2023-10-09T12:53:09;9.23;;;8.20;;
15240;SDS011;7723;52.170;9.978;2023-10-09T12:55:43;10.80;;;7.85;;
15240;SDS011;7723;52.170;9.978;2023-10-09T12:58:11;12.48;;;8.27;;
15240;SDS011;7723;52.170;9.978;2023-10-09T13:00:42;10.32;;;8.10;;
15240;SDS011;7723;52.170;9.978;2023-10-09T13:03:15;9.82;;;8.48;;
15240;SDS011;7723;52.170;9.978;2023-10-09T13:05:46;11.55;;;9.10;;
15240;SDS011;7723;52.170;9.978;2023-10-09T13:08:21;13.98;;;10.23;;
15240;SDS011;7723;52.170;9.978;2023-10-09T13:10:50;12.27;;;10.43;;
15240;SDS011;7723;52.170;9.978;2023-10-09T13:13:24;12.98;;;10.48;;
15240;SDS011;7723;52.170;9.978;2023-10-09T13:16:06;11.55;;;9.90;;
15240;SDS011;7723;52.170;9.978;2023-10-09T13:18:36;12.73;;;10.27;;
15240;SDS011;7723;52.170;9.978;2023-10-09T13:21:04;12.93;;;10.50;;
15240;SDS011;7723;52.170;9.978;2023-10-09T13:23:32;12.98;;;10.82;;
15240;SDS011;7723;52.170;9.978;2023-10-09T13:26:07;12.93;;;10.75;;
15240;SDS011;7723;52.170;9.978;2023-10-09T13:28:44;14.77;;;11.52;;
15240;SDS011;7723;52.170;9.978;2023-10-09T13:31:14;15.43;;;11.15;;
15240;SDS011;7723;52.170;9.978;2023-10-09T13:33:43;15.93;;;11.48;;
15240;SDS011;7723;52.170;9.978;2023-10-09T13:36:12;13.27;;;10.13;;
15240;SDS011;7723;52.170;9.978;2023-10-09T13:38:52;11.90;;;10.20;;
15240;SDS011;7723;52.170;9.978;2023-10-09T13:41:19;12.27;;;10.52;;
15240;SDS011;7723;52.170;9.978;2023-10-09T13:43:47;14.45;;;11.13;;
15240;SDS011;7723;52.170;9.978;2023-10-09T13:46:18;14.63;;;11.65;;
15240;SDS011;7723;52.170;9.978;2023-10-09T13:48:45;13.57;;;11.57;;
15240;SDS011;7723;52.170;9.978;2023-10-09T13:51:14;14.40;;;10.93;;
15240;SDS011;7723;52.170;9.978;2023-10-09T13:53:44;14.63;;;11.57;;
15240;SDS011;7723;52.170;9.978;2023-10-09T13:56:12;14.65;;;11.57;;
15240;SDS011;7723;52.170;9.978;2023-10-09T13:58:44;15.82;;;11.48;;
15240;SDS011;7723;52.170;9.978;2023-10-09T14:01:15;16.48;;;11.23;;
15240;SDS011;7723;52.170;9.978;2023-10-09T14:03:54;16.13;;;11.15;;
15240;SDS011;7723;52.170;9.978;2023-10-09T14:06:21;13.90;;;11.65;;
15240;SDS011;7723;52.170;9.978;2023-10-09T14:09:00;15.85;;;11.43;;
15240;SDS011;7723;52.170;9.978;2023-10-09T14:11:34;16.33;;;12.32;;
15240;SDS011;7723;52.170;9.978;2023-10-09T14:14:04;13.95;;;11.75;;
15240;SDS011;7723;52.170;9.978;2023-10-09T14:16:36;14.95;;;10.80;;
15240;SDS011;7723;52.170;9.978;2023-10-09T14:19:08;13.75;;;11.25;;
15240;SDS011;7723;52.170;9.978;2023-10-09T14:21:38;17.50;;;11.48;;
15240;SDS011;7723;52.170;9.978;2023-10-09T14:24:07;14.23;;;12.00;;
15240;SDS011;7723;52.170;9.978;2023-10-09T14:26:40;14.63;;;11.50;;
15240;SDS011;7723;52.170;9.978;2023-10-09T14:29:10;12.60;;;11.02;;
15240;SDS011;7723;52.170;9.978;2023-10-09T14:31:43;14.70;;;11.88;;
15240;SDS011;7723;52.170;9.978;2023-10-09T14:34:14;15.52;;;10.77;;
15240;SDS011;7723;52.170;9.978;2023-10-09T14:36:41;16.23;;;11.70;;
15240;SDS011;7723;52.170;9.978;2023-10-09T14:39:09;15.18;;;11.93;;
15240;SDS011;7723;52.170;9.978;2023-10-09T14:41:38;14.57;;;12.10;;
15240;SDS011;7723;52.170;9.978;2023-10-09T14:44:06;18.10;;;12.77;;
15240;SDS011;7723;52.170;9.978;2023-10-09T14:46:42;15.05;;;12.05;;
15240;SDS011;7723;52.170;9.978;2023-10-09T14:49:09;13.73;;;11.82;;
15240;SDS011;7723;52.170;9.978;2023-10-09T14:51:39;16.20;;;12.77;;
15240;SDS011;7723;52.170;9.978;2023-10-09T14:54:06;15.60;;;11.25;;
15240;SDS011;7723;52.170;9.978;2023-10-09T14:56:33;17.13;;;12.20;;
15240;SDS011;7723;52.170;9.978;2023-10-09T14:59:02;14.50;;;10.82;;
15240;SDS011;7723;52.170;9.978;2023-10-09T15:01:30;15.38;;;10.38;;
15240;SDS011;7723;52.170;9.978;2023-10-09T15:03:58;14.05;;;11.88;;
15240;SDS011;7723;52.170;9.978;2023-10-09T15:06:26;16.20;;;11.27;;
15240;SDS011;7723;52.170;9.978;2023-10-09T15:08:55;15.05;;;11.57;;
15240;SDS011;7723;52.170;9.978;2023-10-09T15:11:23;17.13;;;12.93;;
15240;SDS011;7723;52.170;9.978;2023-10-09T15:13:53;15.80;;;12.20;;
15240;SDS011;7723;52.170;9.978;2023-10-09T15:16:21;15.80;;;13.00;;
15240;SDS011;7723;52.170;9.978;2023-10-09T15:18:51;16.15;;;12.13;;
15240;SDS011;7723;52.170;9.978;2023-10-09T15:21:21;18.13;;;12.90;;
15240;SDS011;7723;52.170;9.978;2023-10-09T15:23:51;17.13;;;12.75;;
15240;SDS011;7723;52.170;9.978;2023-10-09T15:26:19;15.63;;;12.82;;
15240;SDS011;7723;52.170;9.978;2023-10-09T15:28:47;18.13;;;12.65;;
15240;SDS011;7723;52.170;9.978;2023-10-09T15:31:16;16.20;;;12.52;;
15240;SDS011;7723;52.170;9.978;2023-10-09T15:33:44;15.88;;;12.73;;
15240;SDS011;7723;52.170;9.978;2023-10-09T15:36:13;17.23;;;12.63;;